createdAt,value
2019-03-06T00:01:01.662Z,95.30
2019-03-06T00:03:30.337Z,95.50
2019-03-06T00:05:59.031Z,95.40
2019-03-06T00:08:30.852Z,95.30
2019-03-06T00:10:59.507Z,95.20
2019-03-06T00:13:28.155Z,95.20
2019-03-06T00:15:57.172Z,95.00
2019-03-06T00:18:25.852Z,94.80
2019-03-06T00:20:54.577Z,94.60
2019-03-06T00:23:23.629Z,94.40
2019-03-06T00:25:52.354Z,94.30
2019-03-06T00:28:21.033Z,94.10
2019-03-06T00:30:51.972Z,94.10
2019-03-06T00:33:20.918Z,94.60
2019-03-06T00:35:50.972Z,94.40
2019-03-06T00:38:20.561Z,94.30
2019-03-06T00:41:07.526Z,94.30
2019-03-06T00:43:36.661Z,94.30
2019-03-06T00:46:05.345Z,94.20
2019-03-06T00:48:34.222Z,94.20
2019-03-06T00:51:02.987Z,94.10
2019-03-06T00:53:31.730Z,93.80
2019-03-06T00:56:00.432Z,93.70
2019-03-06T00:58:29.412Z,93.40
2019-03-06T01:00:58.405Z,93.40
2019-03-06T01:03:27.219Z,93.20
2019-03-06T01:05:56.005Z,92.90
2019-03-06T01:08:24.710Z,93.10
2019-03-06T01:10:53.438Z,92.70
2019-03-06T01:13:22.765Z,92.70
2019-03-06T01:15:51.670Z,92.80
2019-03-06T01:18:20.653Z,92.80
2019-03-06T01:20:49.889Z,93.00
2019-03-06T01:23:18.779Z,93.30
2019-03-06T01:25:47.502Z,93.10
2019-03-06T01:28:16.451Z,93.10
2019-03-06T01:30:45.196Z,93.30
2019-03-06T01:33:33.569Z,93.00
2019-03-06T01:36:11.596Z,93.20
2019-03-06T01:38:57.845Z,93.10
2019-03-06T01:41:34.717Z,93.10
2019-03-06T01:44:08.214Z,93.00
2019-03-06T01:46:36.911Z,93.10
2019-03-06T01:49:05.734Z,93.00
2019-03-06T01:51:35.546Z,93.20
2019-03-06T01:54:04.375Z,93.20
2019-03-06T01:56:33.052Z,93.20
2019-03-06T01:59:02.021Z,93.30
2019-03-06T02:01:30.791Z,93.40
2019-03-06T02:03:59.787Z,93.60
2019-03-06T02:06:28.508Z,93.60
2019-03-06T02:08:57.326Z,93.70
2019-03-06T02:11:26.211Z,93.80
2019-03-06T02:13:55.008Z,93.70
2019-03-06T02:16:23.735Z,93.80
2019-03-06T02:18:52.425Z,93.70
2019-03-06T02:21:21.179Z,93.80
2019-03-06T02:23:50.082Z,93.90
2019-03-06T02:26:18.750Z,93.90
2019-03-06T02:28:47.750Z,94.10
2019-03-06T02:31:16.406Z,94.00
2019-03-06T02:33:45.188Z,94.00
2019-03-06T02:36:14.014Z,94.00
2019-03-06T02:38:43.131Z,94.20
2019-03-06T02:41:12.054Z,94.10
2019-03-06T02:43:44.320Z,94.20
2019-03-06T02:46:13.324Z,94.20
2019-03-06T02:48:42.164Z,94.30
2019-03-06T02:51:11.648Z,94.30
2019-03-06T02:53:40.690Z,94.30
2019-03-06T02:56:09.573Z,94.30
2019-03-06T02:58:44.617Z,94.40
2019-03-06T03:01:35.455Z,94.40
2019-03-06T03:04:09.535Z,94.40
2019-03-06T03:06:42.210Z,94.40
2019-03-06T03:09:18.435Z,94.50
2019-03-06T03:11:47.271Z,94.50
2019-03-06T03:14:16.390Z,94.70
2019-03-06T03:16:45.182Z,94.60
2019-03-06T03:19:14.285Z,94.60
2019-03-06T03:21:42.997Z,94.60
2019-03-06T03:24:11.795Z,94.70
2019-03-06T03:26:40.467Z,94.70
2019-03-06T03:29:09.237Z,94.70
2019-03-06T03:31:38.319Z,94.70
2019-03-06T03:34:07.048Z,94.70
2019-03-06T03:36:35.876Z,94.80
2019-03-06T03:39:07.136Z,94.80
2019-03-06T03:41:36.111Z,94.80
2019-03-06T03:44:04.859Z,94.90
2019-03-06T03:46:33.666Z,94.80
2019-03-06T03:49:02.314Z,94.90
2019-03-06T03:51:31.266Z,94.90
2019-03-06T03:53:59.950Z,94.90
2019-03-06T03:56:28.879Z,95.00
2019-03-06T03:58:57.561Z,95.00
2019-03-06T04:01:26.329Z,95.10
2019-03-06T04:03:55.099Z,95.30
2019-03-06T04:06:23.906Z,95.00
2019-03-06T04:08:52.602Z,95.20
2019-03-06T04:11:21.276Z,95.30
2019-03-06T04:13:50.458Z,95.30
2019-03-06T04:16:19.506Z,95.30
2019-03-06T04:18:48.328Z,95.30
2019-03-06T04:21:17.080Z,95.30
2019-03-06T04:23:47.260Z,95.30
2019-03-06T04:26:16.004Z,95.40
2019-03-06T04:28:44.669Z,95.50
2019-03-06T04:31:13.598Z,95.50
2019-03-06T04:33:42.494Z,95.60
2019-03-06T04:36:11.407Z,95.70
2019-03-06T04:38:40.292Z,95.70
2019-03-06T04:41:09.039Z,95.70
2019-03-06T04:43:38.310Z,95.80
2019-03-06T04:46:07.477Z,95.80
2019-03-06T04:48:36.714Z,95.90
2019-03-06T04:51:05.578Z,95.90
2019-03-06T04:53:34.461Z,95.90
2019-03-06T04:56:03.261Z,96.00
2019-03-06T04:58:32.895Z,96.20
2019-03-06T05:01:02.212Z,96.10
2019-03-06T05:03:30.961Z,96.20
2019-03-06T05:05:59.626Z,96.20
2019-03-06T05:08:28.710Z,96.10
2019-03-06T05:10:57.734Z,96.10
2019-03-06T05:13:26.703Z,96.20
2019-03-06T05:15:55.449Z,96.50
2019-03-06T05:18:34.284Z,96.70
2019-03-06T05:21:03.124Z,96.50
2019-03-06T05:23:32.311Z,96.60
2019-03-06T05:26:01.305Z,96.60
2019-03-06T05:28:30.030Z,96.40
2019-03-06T05:30:58.987Z,96.30
2019-03-06T05:33:28.760Z,96.40
2019-03-06T05:36:45.004Z,96.40
2019-03-06T05:39:13.685Z,96.30
2019-03-06T05:41:42.401Z,96.30
2019-03-06T05:44:11.430Z,96.40
2019-03-06T05:46:40.331Z,96.30
2019-03-06T05:49:09.288Z,96.40
2019-03-06T05:51:38.120Z,96.40
2019-03-06T05:54:06.810Z,96.40
2019-03-06T05:56:35.494Z,96.30
2019-03-06T05:59:04.525Z,96.20
2019-03-06T06:01:33.952Z,96.20
2019-03-06T06:04:03.111Z,96.20
2019-03-06T06:06:32.201Z,96.10
2019-03-06T06:09:01.005Z,95.90
2019-03-06T06:11:30.241Z,96.00
2019-03-06T06:13:59.266Z,95.50
2019-03-06T06:16:28.036Z,94.90
2019-03-06T06:18:57.100Z,94.60
2019-03-06T06:21:48.507Z,94.10
2019-03-06T06:24:20.745Z,93.60
2019-03-06T06:26:49.442Z,93.30
2019-03-06T06:29:18.145Z,93.10
2019-03-06T06:31:47.052Z,92.30
2019-03-06T06:34:16.182Z,91.90
2019-03-06T06:36:45.226Z,91.90
2019-03-06T06:39:13.882Z,92.20
2019-03-06T06:41:42.549Z,92.20
2019-03-06T06:44:11.630Z,91.60
2019-03-06T06:46:40.653Z,90.80
2019-03-06T06:49:09.357Z,88.40
2019-03-06T06:52:07.026Z,85.50
2019-03-06T06:54:45.567Z,81.50
2019-03-06T06:57:23.489Z,78.20
2019-03-06T07:00:16.882Z,75.60
2019-03-06T07:03:24.512Z,73.80
2019-03-06T07:06:00.247Z,71.90
2019-03-06T07:08:40.275Z,70.20
2019-03-06T07:11:20.890Z,67.10
2019-03-06T07:13:57.012Z,64.20
2019-03-06T07:16:35.029Z,61.90
2019-03-06T07:19:11.070Z,61.50
2019-03-06T07:21:55.748Z,62.10
2019-03-06T07:24:37.249Z,61.40
2019-03-06T07:27:18.078Z,60.00
2019-03-06T07:29:52.929Z,58.70
2019-03-06T07:32:40.725Z,57.80
2019-03-06T07:35:55.263Z,57.60
2019-03-06T07:38:24.216Z,56.20
2019-03-06T07:41:03.225Z,53.60
2019-03-06T07:43:57.214Z,53.20
2019-03-06T07:46:43.846Z,51.90
2019-03-06T07:49:20.328Z,51.00
2019-03-06T07:52:11.438Z,50.10
2019-03-06T07:54:52.871Z,48.50
2019-03-06T07:57:25.824Z,48.90
2019-03-06T07:59:54.725Z,50.80
2019-03-06T08:02:36.229Z,53.90
2019-03-06T08:05:05.990Z,55.50
2019-03-06T08:07:34.998Z,53.90
2019-03-06T08:10:10.714Z,52.90
2019-03-06T08:13:00.406Z,50.00
2019-03-06T08:15:45.174Z,47.40
2019-03-06T08:18:22.699Z,45.10
2019-03-06T08:21:09.030Z,43.80
2019-03-06T08:23:50.895Z,43.50
2019-03-06T08:26:19.910Z,43.90
2019-03-06T08:28:48.825Z,43.30
2019-03-06T08:31:24.938Z,42.00
2019-03-06T08:33:53.961Z,40.80
2019-03-06T08:36:23.289Z,41.20
2019-03-06T08:38:51.951Z,42.30
2019-03-06T08:41:21.171Z,42.50
2019-03-06T08:43:49.833Z,42.20
2019-03-06T08:46:38.009Z,41.90
2019-03-06T08:49:28.505Z,43.10
2019-03-06T08:52:06.663Z,44.70
2019-03-06T08:54:44.712Z,48.20
2019-03-06T08:57:26.456Z,50.80
2019-03-06T09:00:20.376Z,51.30
2019-03-06T09:03:16.990Z,48.90
2019-03-06T09:05:54.386Z,46.50
2019-03-06T09:08:49.298Z,46.40
2019-03-06T09:11:43.386Z,46.40
2019-03-06T09:14:31.707Z,43.80
2019-03-06T09:17:28.554Z,42.80
2019-03-06T09:20:08.325Z,43.10
2019-03-06T09:22:54.090Z,42.10
2019-03-06T09:25:35.217Z,41.40
2019-03-06T09:28:15.727Z,40.30
2019-03-06T09:31:06.770Z,42.80
2019-03-06T09:33:56.470Z,42.40
2019-03-06T09:36:31.913Z,44.10
2019-03-06T09:39:24.532Z,44.90
2019-03-06T09:42:15.685Z,43.90
2019-03-06T09:44:53.101Z,43.80
2019-03-06T09:47:53.246Z,44.00
2019-03-06T09:50:27.266Z,43.00
2019-03-06T09:53:10.227Z,43.70
2019-03-06T09:55:47.143Z,43.20
2019-03-06T09:58:38.657Z,44.70
2019-03-06T10:01:26.107Z,45.20
2019-03-06T10:04:22.853Z,44.80
2019-03-06T10:07:17.060Z,44.60
2019-03-06T10:10:17.366Z,44.90
2019-03-06T10:12:51.365Z,44.20
2019-03-06T10:15:27.348Z,42.90
2019-03-06T10:17:59.986Z,41.20
2019-03-06T10:20:29.009Z,42.30
2019-03-06T10:22:59.608Z,41.80
2019-03-06T10:25:30.667Z,42.00
2019-03-06T10:28:05.999Z,41.80
2019-03-06T10:30:30.354Z,42.40
2019-03-06T10:32:59.153Z,43.00
2019-03-06T10:35:27.987Z,43.90
2019-03-06T10:37:57.126Z,44.40
2019-03-06T10:40:25.913Z,43.20
2019-03-06T10:42:56.211Z,42.80
2019-03-06T10:45:25.320Z,43.00
2019-03-06T10:47:54.243Z,43.90
2019-03-06T10:50:27.440Z,43.90
2019-03-06T10:52:55.075Z,43.60
2019-03-06T10:55:23.835Z,43.80
2019-03-06T10:57:52.958Z,44.50
2019-03-06T11:00:26.618Z,44.00
2019-03-06T11:02:56.978Z,46.00
2019-03-06T11:05:28.164Z,48.80
2019-03-06T11:07:57.322Z,50.50
2019-03-06T11:10:26.596Z,51.40
2019-03-06T11:12:57.636Z,52.40
2019-03-06T11:15:26.561Z,52.70
2019-03-06T11:17:55.382Z,53.00
2019-03-06T11:20:27.264Z,53.20
2019-03-06T11:22:57.151Z,52.40
2019-03-06T11:25:26.883Z,53.70
2019-03-06T11:27:55.769Z,53.10
2019-03-06T11:30:30.854Z,53.10
2019-03-06T11:32:59.606Z,52.80
2019-03-06T11:35:28.473Z,52.10
2019-03-06T11:37:57.786Z,51.50
2019-03-06T11:40:26.888Z,51.80
2019-03-06T11:42:55.631Z,52.30
2019-03-06T11:45:24.564Z,52.50
2019-03-06T11:47:53.250Z,52.00
2019-03-06T11:50:22.126Z,52.10
2019-03-06T11:52:50.937Z,51.90
2019-03-06T11:55:20.129Z,50.80
2019-03-06T11:57:50.926Z,49.30
2019-03-06T12:00:26.434Z,50.00
2019-03-06T12:02:55.277Z,50.40
2019-03-06T12:05:24.238Z,50.10
2019-03-06T12:07:53.698Z,50.90
2019-03-06T12:10:23.177Z,50.80
2019-03-06T12:12:52.285Z,51.40
2019-03-06T12:15:21.698Z,51.60
2019-03-06T12:17:50.840Z,51.20
2019-03-06T12:20:19.536Z,52.40
2019-03-06T12:22:48.742Z,53.80
2019-03-06T12:25:17.631Z,53.80
2019-03-06T12:27:46.645Z,52.80
2019-03-06T12:30:15.946Z,52.00
2019-03-06T12:32:45.603Z,53.30
2019-03-06T12:35:15.993Z,53.10
2019-03-06T12:37:47.112Z,52.80
2019-03-06T12:40:18.717Z,52.90
2019-03-06T12:42:47.587Z,53.50
2019-03-06T12:45:17.085Z,53.20
2019-03-06T12:47:55.177Z,53.10
2019-03-06T12:50:20.581Z,53.20
2019-03-06T12:52:49.673Z,53.70
2019-03-06T12:55:18.339Z,54.10
2019-03-06T12:57:47.126Z,53.60
2019-03-06T13:00:20.830Z,53.60
2019-03-06T13:02:49.947Z,52.90
2019-03-06T13:05:19.969Z,52.50
2019-03-06T13:07:48.965Z,53.10
2019-03-06T13:10:18.314Z,53.00
2019-03-06T13:12:47.718Z,53.00
2019-03-06T13:15:17.978Z,52.50
2019-03-06T13:17:47.746Z,52.20
2019-03-06T13:20:17.366Z,52.50
2019-03-06T13:22:46.469Z,54.00
2019-03-06T13:25:17.106Z,55.10
2019-03-06T13:27:54.397Z,55.60
2019-03-06T13:30:16.774Z,56.00
2019-03-06T13:33:03.829Z,56.10
2019-03-06T13:35:33.102Z,55.90
2019-03-06T13:38:02.220Z,55.90
2019-03-06T13:40:31.079Z,56.40
2019-03-06T13:43:00.021Z,56.80
2019-03-06T13:45:28.877Z,56.80
2019-03-06T13:47:57.923Z,56.80
2019-03-06T13:50:27.028Z,56.70
2019-03-06T13:52:55.934Z,57.00
2019-03-06T13:55:24.751Z,57.40
2019-03-06T13:57:53.569Z,57.20
2019-03-06T14:00:22.783Z,57.00
2019-03-06T14:02:51.876Z,57.40
2019-03-06T14:05:22.070Z,57.20
2019-03-06T14:07:56.543Z,57.20
2019-03-06T14:10:21.988Z,57.10
2019-03-06T14:12:51.197Z,56.80
2019-03-06T14:15:20.791Z,56.80
2019-03-06T14:17:49.773Z,57.00
2019-03-06T14:20:21.589Z,57.50
2019-03-06T14:22:50.598Z,58.10
2019-03-06T14:25:20.123Z,58.30
2019-03-06T14:27:49.157Z,58.60
2019-03-06T14:30:18.386Z,58.70
2019-03-06T14:32:47.624Z,59.00
2019-03-06T14:35:17.825Z,59.30
2019-03-06T14:37:46.829Z,59.70
2019-03-06T14:40:41.179Z,59.60
2019-03-06T14:43:09.928Z,59.40
2019-03-06T14:45:38.928Z,59.30
2019-03-06T14:48:08.014Z,59.00
2019-03-06T14:50:37.001Z,59.10
2019-03-06T14:53:06.415Z,59.30
2019-03-06T14:55:35.465Z,59.40
2019-03-06T14:58:04.409Z,59.70
2019-03-06T15:00:33.663Z,60.00
2019-03-06T15:03:03.001Z,60.40
2019-03-06T15:05:32.953Z,60.70
2019-03-06T15:08:01.926Z,61.00
2019-03-06T15:10:31.081Z,61.20
2019-03-06T15:12:59.905Z,61.10
2019-03-06T15:15:28.826Z,61.30
2019-03-06T15:17:58.007Z,61.40
2019-03-06T15:20:27.896Z,61.60
2019-03-06T15:22:57.869Z,61.90
2019-03-06T15:25:26.940Z,62.10
2019-03-06T15:27:55.999Z,62.70
2019-03-06T15:30:25.237Z,63.50
2019-03-06T15:32:54.193Z,64.20
2019-03-06T15:35:23.410Z,64.60
2019-03-06T15:37:52.294Z,64.50
2019-03-06T15:40:23.650Z,64.70
2019-03-06T15:42:52.592Z,64.90
2019-03-06T15:45:23.253Z,64.80
2019-03-06T15:47:52.324Z,65.00
2019-03-06T15:50:21.684Z,65.40
2019-03-06T15:52:50.504Z,65.20
2019-03-06T15:55:24.194Z,65.30
2019-03-06T15:57:53.033Z,65.00
2019-03-06T16:00:32.687Z,65.20
2019-03-06T16:03:01.769Z,65.30
2019-03-06T16:05:30.782Z,65.40
2019-03-06T16:07:59.974Z,65.80
2019-03-06T16:10:29.195Z,65.70
2019-03-06T16:12:58.138Z,65.80
2019-03-06T16:15:28.074Z,65.90
2019-03-06T16:17:58.443Z,66.00
2019-03-06T16:20:27.192Z,66.30
2019-03-06T16:22:55.971Z,66.50
2019-03-06T16:25:25.025Z,66.60
2019-03-06T16:27:54.150Z,67.00
2019-03-06T16:30:23.494Z,67.20
2019-03-06T16:32:52.525Z,67.50
2019-03-06T16:35:21.749Z,67.80
2019-03-06T16:37:50.756Z,67.70
2019-03-06T16:40:20.387Z,67.90
2019-03-06T16:42:49.836Z,67.90
2019-03-06T16:45:19.905Z,68.10
2019-03-06T16:47:48.942Z,68.20
2019-03-06T16:50:17.817Z,68.40
2019-03-06T16:52:47.018Z,68.50
2019-03-06T16:55:16.768Z,69.00
2019-03-06T16:57:45.542Z,69.40
2019-03-06T17:00:23.665Z,69.70
2019-03-06T17:02:52.765Z,70.20
2019-03-06T17:05:21.802Z,70.40
2019-03-06T17:07:51.328Z,70.70
2019-03-06T17:10:20.525Z,70.90
2019-03-06T17:12:50.020Z,71.00
2019-03-06T17:15:19.574Z,71.20
2019-03-06T17:17:48.758Z,71.50
2019-03-06T17:20:19.638Z,71.60
2019-03-06T17:22:48.911Z,71.80
2019-03-06T17:25:18.161Z,72.10
2019-03-06T17:27:47.190Z,72.40
2019-03-06T17:30:19.124Z,72.30
2019-03-06T17:32:59.445Z,72.50
2019-03-06T17:35:29.000Z,72.70
2019-03-06T17:37:58.300Z,72.70
2019-03-06T17:40:27.545Z,72.80
2019-03-06T17:42:56.703Z,72.80
2019-03-06T17:45:26.042Z,72.80
2019-03-06T17:47:55.122Z,72.80
2019-03-06T17:50:24.256Z,72.80
2019-03-06T17:52:53.442Z,72.70
2019-03-06T17:55:22.937Z,72.80
2019-03-06T17:57:51.930Z,72.90
2019-03-06T18:00:24.377Z,73.10
2019-03-06T18:02:53.565Z,73.40
2019-03-06T18:05:22.690Z,73.60
2019-03-06T18:07:51.671Z,73.70
2019-03-06T18:10:20.681Z,73.90
2019-03-06T18:12:49.811Z,73.70
2019-03-06T18:15:18.628Z,74.00
2019-03-06T18:17:49.481Z,74.00
2019-03-06T18:20:18.607Z,74.20
2019-03-06T18:22:47.766Z,74.30
2019-03-06T18:25:17.479Z,74.20
2019-03-06T18:27:46.362Z,74.30
2019-03-06T18:30:16.622Z,74.20
2019-03-06T18:32:46.059Z,74.20
2019-03-06T18:35:17.487Z,74.20
2019-03-06T18:37:46.687Z,74.00
2019-03-06T18:40:16.851Z,73.70
2019-03-06T18:42:46.025Z,73.90
2019-03-06T18:45:18.332Z,73.80
2019-03-06T18:47:47.224Z,73.80
2019-03-06T18:50:17.638Z,73.70
2019-03-06T18:52:46.705Z,73.60
2019-03-06T18:55:30.446Z,73.50
2019-03-06T18:58:10.306Z,73.40
2019-03-06T19:00:44.165Z,73.60
2019-03-06T19:03:13.393Z,73.20
2019-03-06T19:05:42.664Z,73.20
2019-03-06T19:08:14.353Z,72.90
2019-03-06T19:10:45.874Z,72.90
2019-03-06T19:13:14.618Z,72.70
2019-03-06T19:15:45.414Z,72.30
2019-03-06T19:18:27.629Z,72.30
2019-03-06T19:21:04.248Z,72.20
2019-03-06T19:23:34.095Z,71.90
2019-03-06T19:26:03.226Z,71.50
2019-03-06T19:28:35.359Z,71.50
2019-03-06T19:31:04.143Z,71.50
2019-03-06T19:33:35.353Z,71.40
2019-03-06T19:36:06.454Z,71.00
2019-03-06T19:38:35.134Z,71.00
2019-03-06T19:41:04.008Z,70.90
2019-03-06T19:43:33.489Z,70.70
2019-03-06T19:46:02.609Z,70.60
2019-03-06T19:48:31.538Z,70.60
2019-03-06T19:51:00.682Z,70.60
2019-03-06T19:53:29.418Z,70.30
2019-03-06T19:55:58.155Z,70.50
2019-03-06T19:58:27.339Z,70.30
2019-03-06T20:00:56.090Z,70.40
2019-03-06T20:03:25.297Z,70.30
2019-03-06T20:05:54.058Z,70.20
2019-03-06T20:08:22.886Z,70.10
2019-03-06T20:10:51.837Z,70.10
2019-03-06T20:13:21.006Z,70.30
2019-03-06T20:15:49.772Z,70.20
2019-03-06T20:18:18.509Z,70.10
2019-03-06T20:20:52.224Z,70.10
2019-03-06T20:23:21.246Z,70.00
2019-03-06T20:25:50.258Z,70.00
2019-03-06T20:28:19.613Z,70.00
2019-03-06T20:30:48.730Z,69.60
2019-03-06T20:33:18.989Z,69.60
2019-03-06T20:35:49.138Z,69.60
2019-03-06T20:38:17.792Z,69.50
2019-03-06T20:40:46.531Z,69.50
2019-03-06T20:43:15.565Z,69.50
2019-03-06T20:45:44.375Z,69.50
2019-03-06T20:48:13.387Z,69.50
2019-03-06T20:50:42.572Z,69.60
2019-03-06T20:53:11.567Z,69.40
2019-03-06T20:55:40.605Z,69.40
2019-03-06T20:58:10.446Z,69.50
2019-03-06T21:00:39.197Z,69.50
2019-03-06T21:03:07.962Z,69.60
2019-03-06T21:05:36.766Z,69.50
2019-03-06T21:08:05.751Z,69.80
2019-03-06T21:10:34.494Z,69.70
2019-03-06T21:13:03.304Z,69.80
2019-03-06T21:15:32.138Z,70.10
2019-03-06T21:18:00.981Z,69.80
2019-03-06T21:20:30.050Z,70.10
2019-03-06T21:22:58.830Z,70.20
2019-03-06T21:25:27.588Z,70.30
2019-03-06T21:27:56.338Z,70.50
2019-03-06T21:30:30.959Z,70.40
2019-03-06T21:32:59.717Z,70.20
2019-03-06T21:35:28.826Z,70.20
2019-03-06T21:37:58.474Z,70.30
2019-03-06T21:40:27.296Z,70.50
2019-03-06T21:42:56.343Z,70.70
2019-03-06T21:45:25.123Z,70.70
2019-03-06T21:47:54.084Z,70.90
2019-03-06T21:50:23.027Z,71.00
2019-03-06T21:52:52.187Z,71.20
2019-03-06T21:55:21.016Z,71.10
2019-03-06T21:57:50.279Z,71.30
2019-03-06T22:00:19.723Z,71.50
2019-03-06T22:02:48.754Z,71.40
2019-03-06T22:05:18.162Z,71.50
2019-03-06T22:07:47.509Z,71.40
2019-03-06T22:10:16.617Z,71.50
2019-03-06T22:12:45.564Z,71.50
2019-03-06T22:15:14.863Z,71.50
2019-03-06T22:17:44.373Z,71.60
2019-03-06T22:20:14.439Z,71.60
2019-03-06T22:22:43.422Z,71.50
2019-03-06T22:25:12.575Z,71.60
2019-03-06T22:27:41.689Z,71.70
2019-03-06T22:30:13.754Z,71.80
2019-03-06T22:32:42.757Z,71.90
2019-03-06T22:35:11.651Z,72.00
2019-03-06T22:37:40.391Z,72.10
2019-03-06T22:40:10.393Z,72.10
2019-03-06T22:42:39.817Z,72.10
2019-03-06T22:45:09.505Z,72.00
2019-03-06T22:47:38.249Z,72.10
2019-03-06T22:50:08.686Z,72.30
2019-03-06T22:52:37.426Z,72.30
2019-03-06T22:55:07.261Z,72.40
2019-03-06T22:57:36.735Z,72.50
2019-03-06T23:00:18.406Z,72.80
2019-03-06T23:02:54.452Z,72.80
2019-03-06T23:05:23.474Z,72.80
2019-03-06T23:07:53.861Z,72.80
2019-03-06T23:10:22.769Z,72.90
2019-03-06T23:12:51.731Z,73.00
2019-03-06T23:15:20.918Z,73.20
2019-03-06T23:17:50.133Z,73.10
2019-03-06T23:20:19.318Z,73.20
2019-03-06T23:22:48.282Z,73.20
2019-03-06T23:25:18.355Z,73.40
2019-03-06T23:27:47.214Z,73.50
2019-03-06T23:30:17.113Z,73.60
2019-03-06T23:32:46.388Z,73.80
2019-03-06T23:35:15.330Z,74.00
2019-03-06T23:37:44.080Z,74.40
2019-03-06T23:40:13.287Z,74.50
2019-03-06T23:42:43.205Z,75.10
2019-03-06T23:45:12.093Z,75.60
2019-03-06T23:47:41.080Z,77.00
2019-03-06T23:50:09.990Z,77.40
2019-03-06T23:53:01.217Z,77.80
2019-03-06T23:55:30.792Z,78.20
2019-03-06T23:57:59.772Z,79.20
